Terminal Aerodrome Forecast
Issued by NWS

Home | Current Version | Previous Version | Text Only | Print | Product List | Glossary On
Versions: 1 2 3 4 5 6 7 8 9 10 11 12 13
000
FTUS42 KTAE 262325
TAFDHN
TAF
KDHN 262325Z 2700/2724 17008KT P6SM BKN040
     FM270700 17010KT P6SM BKN015
     FM271500 21018G26KT P6SM VCTS BKN025CB=

USA.gov is the U.S. government's official web portal to all federal, state and local government web resources and services.